Time;durP1;ratioP1;P1;durP2;ratioP2;P2;SDS_P1;SDS_P2;PMS_P1;PMS_P2;Temp;Humidity;BMP_temperature;BMP_pressure;BME280_temperature;BME280_humidity;BME280_pressure;Samples;Min_cycle;Max_cycle;Signal;HPM_P1;HPM_P2
2023/05/22 00:02:43;;;;;;;;;;;;;;;14.24;60.82;99231.23;67966;1275;1016133;-65
2023/05/22 00:05:47;;;;;;;;;;;;;;;14.29;59.95;99234.95;67973;1275;1017001;-66
2023/05/22 00:08:51;;;;;;;;;;;;;;;14.20;60.30;99235.91;67873;1275;1016480;-65
2023/05/22 00:11:54;;;;;;;;;;;;;;;14.03;61.25;99239.86;68035;1275;1015733;-63
2023/05/22 00:14:57;;;;;;;;;;;;;;;13.89;61.78;99235.17;65430;1275;5374255;-63
2023/05/22 00:18:28;;;;;;;;;;;;;;;13.81;62.26;99228.18;67909;1275;1016230;-64
2023/05/22 00:21:33;;;;;;;;;;;;;;;13.74;61.72;99226.20;68018;1275;1016343;-65
2023/05/22 00:24:37;;;;;;;;;;;;;;;13.74;61.47;99226.56;67973;1275;1016225;-64
2023/05/22 00:27:40;;;;;;;;;;;;;;;13.60;61.38;99229.23;67986;1275;1016572;-66
2023/05/22 00:30:42;;;;;;;;;;;;;;;13.41;61.79;99231.91;68019;1275;1016425;-64
2023/05/22 00:33:45;;;;;;;;;;;;;;;13.26;62.09;99229.19;67965;1275;1016001;-64
2023/05/22 00:36:48;;;;;;;;;;;;;;;13.09;62.84;99222.73;68022;1275;1016433;-63
2023/05/22 00:39:52;;;;;;;;;;;;;;;13.01;63.72;99218.70;67947;1275;1016527;-64
2023/05/22 00:42:54;;;;;;;;;;;;;;;12.91;64.32;99218.42;68026;1275;1016268;-64
2023/05/22 00:45:57;;;;;;;;;;;;;;;12.91;64.60;99216.34;67962;1275;1016514;-64
2023/05/22 00:49:00;;;;;;;;;;;;;;;12.89;64.23;99212.27;67998;1275;1016383;-66
2023/05/22 00:52:03;;;;;;;;;;;;;;;12.81;64.31;99212.95;67943;1275;1016522;-63
2023/05/22 00:55:07;;;;;;;;;;;;;;;12.68;64.22;99209.53;67999;1275;1016351;-64
2023/05/22 00:58:10;;;;;;;;;;;;;;;12.57;64.86;99209.21;67971;1275;1015760;-67
2023/05/22 01:01:13;;;;;;;;;;;;;;;12.51;65.25;99208.86;68028;1275;1016127;-65
2023/05/22 01:04:17;;;;;;;;;;;;;;;12.40;65.61;99209.18;67953;1275;1016383;-65
2023/05/22 01:07:22;;;;;;;;;;;;;;;12.35;64.94;99210.05;67957;1275;1016482;-64
2023/05/22 01:10:25;;;;;;;;;;;;;;;12.34;65.30;99209.58;68019;1275;1016236;-63
2023/05/22 01:13:27;;;;;;;;;;;;;;;12.22;65.64;99210.15;67964;1275;1016366;-70
2023/05/22 01:16:31;;;;;;;;;;;;;;;12.19;65.90;99209.26;68004;1275;1016806;-68
2023/05/22 01:19:34;;;;;;;;;;;;;;;12.14;65.88;99207.82;67976;1275;1016342;-63
2023/05/22 01:22:37;;;;;;;;;;;;;;;12.08;66.08;99210.42;67935;1275;1018016;-64
2023/05/22 01:25:40;;;;;;;;;;;;;;;12.04;66.26;99209.46;67985;1275;1016156;-66
2023/05/22 01:28:43;;;;;;;;;;;;;;;12.05;66.17;99208.38;67962;1275;1018091;-64
2023/05/22 01:31:46;;;;;;;;;;;;;;;12.07;66.48;99206.31;67955;1274;1016336;-69
2023/05/22 01:34:49;;;;;;;;;;;;;;;12.06;66.88;99204.81;68015;1275;1016999;-67
2023/05/22 01:37:54;;;;;;;;;;;;;;;12.05;67.09;99205.19;67950;1275;1016442;-63
2023/05/22 01:40:57;;;;;;;;;;;;;;;12.05;67.09;99200.45;67950;1275;1016418;-67
2023/05/22 01:44:01;;;;;;;;;;;;;;;12.09;66.77;99202.48;67994;1275;1016446;-64
2023/05/22 01:47:04;;;;;;;;;;;;;;;12.10;66.40;99202.61;68012;1275;1016443;-63
2023/05/22 01:50:13;;;;;;;;;;;;;;;12.09;66.58;99204.06;67972;1275;1016471;-63
2023/05/22 01:53:17;;;;;;;;;;;;;;;12.00;66.90;99202.54;67982;1275;1016497;-64
2023/05/22 01:56:19;;;;;;;;;;;;;;;11.93;67.25;99206.77;68014;1275;1017853;-69
2023/05/22 01:59:24;;;;;;;;;;;;;;;11.82;67.49;99205.86;68034;1275;1016517;-63
2023/05/22 02:02:26;;;;;;;;;;;;;;;11.81;67.54;99206.59;67957;1275;1016445;-63
2023/05/22 02:05:30;;;;;;;;;;;;;;;11.80;67.08;99208.23;67921;1275;1016440;-63
2023/05/22 02:08:33;;;;;;;;;;;;;;;11.78;66.43;99208.38;67963;1275;1016405;-64
2023/05/22 02:11:36;;;;;;;;;;;;;;;11.72;66.15;99208.54;67983;1275;1016469;-63
2023/05/22 02:14:39;;;;;;;;;;;;;;;11.66;66.77;99210.46;67985;1275;1016311;-64
2023/05/22 02:17:43;;;;;;;;;;;;;;;11.60;67.29;99208.73;67968;1275;1016316;-63
2023/05/22 02:20:46;;;;;;;;;;;;;;;11.58;67.55;99210.97;67987;1275;1016632;-64
2023/05/22 02:23:49;;;;;;;;;;;;;;;11.57;67.26;99212.42;67948;1275;1016149;-64
2023/05/22 02:26:52;;;;;;;;;;;;;;;11.58;67.27;99212.31;68027;1275;1016819;-64
2023/05/22 02:29:56;;;;;;;;;;;;;;;11.60;67.22;99212.58;67980;1275;1016967;-64
2023/05/22 02:32:59;;;;;;;;;;;;;;;11.49;67.79;99210.77;67963;1275;1016091;-63
2023/05/22 02:36:01;;;;;;;;;;;;;;;11.35;67.94;99203.02;67964;1275;1016468;-63
2023/05/22 02:39:06;;;;;;;;;;;;;;;11.31;67.64;99200.47;67990;1275;1016160;-63
2023/05/22 02:42:08;;;;;;;;;;;;;;;11.31;67.96;99200.10;67983;1275;1016752;-64
2023/05/22 02:45:11;;;;;;;;;;;;;;;11.35;67.28;99199.85;67987;1275;1016045;-64
2023/05/22 02:48:15;;;;;;;;;;;;;;;11.30;67.24;99199.77;67942;1275;1016986;-65
2023/05/22 02:51:19;;;;;;;;;;;;;;;11.34;67.88;99202.70;67952;1275;1016875;-66
2023/05/22 02:54:22;;;;;;;;;;;;;;;11.35;67.79;99203.36;67980;1275;1015782;-65
2023/05/22 02:57:27;;;;;;;;;;;;;;;11.40;66.75;99205.54;67988;1275;1016468;-64
2023/05/22 03:00:30;;;;;;;;;;;;;;;11.41;66.90;99205.47;67972;1275;1016029;-64
2023/05/22 03:03:34;;;;;;;;;;;;;;;11.30;66.71;99204.86;67957;1275;1016452;-63
2023/05/22 03:06:39;;;;;;;;;;;;;;;11.30;67.23;99199.98;67987;1275;1016525;-65
2023/05/22 03:09:42;;;;;;;;;;;;;;;11.32;67.27;99200.70;67983;1275;1016447;-63
2023/05/22 03:12:46;;;;;;;;;;;;;;;11.37;67.42;99202.53;67944;1275;1016441;-64
2023/05/22 03:15:50;;;;;;;;;;;;;;;11.51;67.33;99203.14;67953;1275;1015761;-66
2023/05/22 03:18:54;;;;;;;;;;;;;;;11.48;67.40;99199.63;67921;1275;1016204;-63
2023/05/22 03:21:57;;;;;;;;;;;;;;;11.32;68.35;99203.52;67989;1275;1016484;-64
2023/05/22 03:25:00;;;;;;;;;;;;;;;11.51;68.64;99204.00;67989;1275;1016461;-64
2023/05/22 03:28:04;;;;;;;;;;;;;;;11.70;68.33;99206.06;67928;1275;1016345;-63
2023/05/22 03:31:08;;;;;;;;;;;;;;;11.83;68.48;99204.02;67928;1275;1016365;-64
2023/05/22 03:34:11;;;;;;;;;;;;;;;11.99;67.95;99199.06;67977;1275;1016146;-63
2023/05/22 03:37:13;;;;;;;;;;;;;;;12.14;68.05;99201.33;67908;1275;1016354;-63
2023/05/22 03:40:18;;;;;;;;;;;;;;;12.36;67.69;99196.49;67960;1275;1018796;-63
2023/05/22 03:43:22;;;;;;;;;;;;;;;12.54;67.22;99195.48;67912;1275;1016065;-64
2023/05/22 03:46:26;;;;;;;;;;;;;;;12.84;66.41;99195.35;67911;1275;1016479;-66
2023/05/22 03:49:29;;;;;;;;;;;;;;;12.97;67.22;99198.36;67947;1275;1016076;-64
2023/05/22 03:52:32;;;;;;;;;;;;;;;13.24;66.41;99201.89;67936;1275;1016482;-64
2023/05/22 03:55:36;;;;;;;;;;;;;;;13.32;65.79;99196.44;67952;1275;1016469;-63
2023/05/22 03:58:41;;;;;;;;;;;;;;;13.40;65.90;99199.15;67984;1275;1016485;-64
2023/05/22 04:01:47;;;;;;;;;;;;;;;13.34;66.27;99196.84;67937;1275;1016474;-63
2023/05/22 04:04:51;;;;;;;;;;;;;;;13.36;66.96;99195.16;67971;1275;1016369;-64
2023/05/22 04:07:55;;;;;;;;;;;;;;;13.58;67.21;99199.67;67961;1275;1016479;-64
2023/05/22 04:10:59;;;;;;;;;;;;;;;13.98;66.56;99192.42;67979;1275;1016391;-65
2023/05/22 04:14:02;;;;;;;;;;;;;;;14.18;65.60;99190.48;67893;1275;1016403;-63
2023/05/22 04:17:06;;;;;;;;;;;;;;;14.57;65.87;99187.08;67964;1275;1016619;-63
2023/05/22 04:20:10;;;;;;;;;;;;;;;14.83;64.70;99184.16;67943;1275;1016453;-64
2023/05/22 04:23:14;;;;;;;;;;;;;;;15.06;64.22;99186.67;67929;1275;1016388;-63
2023/05/22 04:26:19;;;;;;;;;;;;;;;15.34;64.10;99180.56;67925;1275;1018255;-63
2023/05/22 04:29:23;;;;;;;;;;;;;;;15.70;63.89;99179.66;67938;1275;1016480;-64
2023/05/22 04:32:26;;;;;;;;;;;;;;;16.11;63.78;99177.34;67895;1275;1016804;-63
2023/05/22 04:35:30;;;;;;;;;;;;;;;16.54;64.19;99177.55;67912;1275;1016142;-63
2023/05/22 04:38:35;;;;;;;;;;;;;;;16.84;63.99;99177.09;67963;1275;1016421;-64
2023/05/22 04:41:39;;;;;;;;;;;;;;;17.10;64.10;99177.95;67944;1275;1016149;-63
2023/05/22 04:44:42;;;;;;;;;;;;;;;17.38;64.09;99174.25;67917;1275;1016246;-64
2023/05/22 04:47:46;;;;;;;;;;;;;;;17.71;63.04;99172.22;67880;1275;1016490;-63
2023/05/22 04:50:49;;;;;;;;;;;;;;;18.02;62.90;99165.11;67955;1275;1016186;-63
2023/05/22 04:53:54;;;;;;;;;;;;;;;18.51;62.84;99162.65;67960;1275;1016112;-63
2023/05/22 04:56:58;;;;;;;;;;;;;;;18.95;62.42;99161.60;67930;1275;1016441;-64
2023/05/22 05:00:03;;;;;;;;;;;;;;;19.32;60.85;99154.73;67910;1275;1016534;-63
2023/05/22 05:03:07;;;;;;;;;;;;;;;19.65;59.68;99155.14;67915;1275;1016278;-63
2023/05/22 05:06:11;;;;;;;;;;;;;;;19.80;57.97;99153.98;67912;1275;1016890;-64
2023/05/22 05:09:14;;;;;;;;;;;;;;;20.02;55.73;99149.80;67905;1275;1016466;-64
2023/05/22 05:12:18;;;;;;;;;;;;;;;20.23;55.37;99151.34;67940;1275;1016011;-64
2023/05/22 05:15:22;;;;;;;;;;;;;;;20.50;54.62;99150.52;67998;1275;1016478;-63
2023/05/22 05:18:25;;;;;;;;;;;;;;;20.80;54.45;99153.00;67969;1275;1016491;-62
2023/05/22 05:21:28;;;;;;;;;;;;;;;21.02;52.57;99151.00;67927;1275;1016284;-67
2023/05/22 05:24:31;;;;;;;;;;;;;;;21.22;52.64;99150.08;67977;1275;1016736;-63
2023/05/22 05:27:34;;;;;;;;;;;;;;;21.65;52.36;99148.82;67921;1275;1015945;-66
2023/05/22 05:30:37;;;;;;;;;;;;;;;21.80;51.68;99146.70;67949;1275;1016281;-63
2023/05/22 05:33:41;;;;;;;;;;;;;;;22.08;50.84;99147.99;67948;1275;1016329;-64
2023/05/22 05:36:44;;;;;;;;;;;;;;;22.33;49.78;99146.78;67888;1275;1016452;-63
2023/05/22 05:39:48;;;;;;;;;;;;;;;22.51;49.81;99144.17;67906;1275;1016486;-66
2023/05/22 05:42:51;;;;;;;;;;;;;;;22.62;48.39;99146.64;67951;1275;1016439;-63
2023/05/22 05:45:55;;;;;;;;;;;;;;;22.75;48.31;99142.86;67958;1275;1016435;-66
2023/05/22 05:48:59;;;;;;;;;;;;;;;23.01;47.84;99141.19;67965;1275;1016395;-63
2023/05/22 05:52:03;;;;;;;;;;;;;;;23.16;45.95;99138.89;67909;1275;1016305;-64
2023/05/22 05:55:07;;;;;;;;;;;;;;;23.23;46.21;99145.24;67949;1275;1016379;-63
2023/05/22 05:58:11;;;;;;;;;;;;;;;23.53;44.95;99142.73;67938;1275;1018471;-63
2023/05/22 06:01:17;;;;;;;;;;;;;;;23.73;43.81;99142.34;67963;1275;1016324;-63
2023/05/22 06:04:20;;;;;;;;;;;;;;;23.91;43.74;99141.92;67950;1275;1017292;-67
2023/05/22 06:07:24;;;;;;;;;;;;;;;24.02;43.09;99139.84;67940;1275;1016318;-63
2023/05/22 06:10:27;;;;;;;;;;;;;;;24.27;42.82;99138.48;67957;1275;1015976;-63
2023/05/22 06:13:31;;;;;;;;;;;;;;;24.42;41.90;99135.69;67913;1275;1018036;-64
2023/05/22 06:16:34;;;;;;;;;;;;;;;24.56;40.54;99133.95;67919;1275;1016485;-63
2023/05/22 06:19:37;;;;;;;;;;;;;;;24.80;40.88;99130.75;67981;1275;1018564;-65
2023/05/22 06:22:41;;;;;;;;;;;;;;;25.21;40.21;99134.61;67967;1273;1016323;-64
2023/05/22 06:25:44;;;;;;;;;;;;;;;25.33;39.95;99132.02;67921;1275;1015973;-63
2023/05/22 06:28:47;;;;;;;;;;;;;;;25.49;40.23;99128.55;67954;1275;1016427;-63
2023/05/22 06:31:50;;;;;;;;;;;;;;;25.82;39.93;99125.04;67953;1275;1016197;-63
2023/05/22 06:34:54;;;;;;;;;;;;;;;25.96;38.38;99126.88;67972;1275;1016463;-63
2023/05/22 06:37:57;;;;;;;;;;;;;;;25.98;38.11;99117.91;67985;1275;1016117;-64
2023/05/22 06:41:00;;;;;;;;;;;;;;;26.11;37.72;99123.67;67931;1275;1016453;-64
2023/05/22 06:44:05;;;;;;;;;;;;;;;26.25;37.51;99129.23;67992;1275;1016497;-64
2023/05/22 06:47:08;;;;;;;;;;;;;;;26.28;35.97;99131.13;67987;1275;1016363;-63
2023/05/22 06:50:11;;;;;;;;;;;;;;;26.53;37.61;99132.01;67938;1275;1018232;-69
2023/05/22 06:53:14;;;;;;;;;;;;;;;26.94;36.63;99132.13;67968;1275;1016400;-66
2023/05/22 06:56:17;;;;;;;;;;;;;;;27.17;36.06;99134.55;67850;1275;1016507;-66
2023/05/22 06:59:20;;;;;;;;;;;;;;;27.22;35.45;99136.23;67913;1275;1016434;-63
2023/05/22 07:02:23;;;;;;;;;;;;;;;27.32;36.44;99138.90;67920;1275;1016430;-63
2023/05/22 07:05:26;;;;;;;;;;;;;;;27.34;34.25;99135.43;67949;1275;1016872;-64
2023/05/22 07:08:29;;;;;;;;;;;;;;;27.47;35.36;99135.02;67922;1275;1016420;-66
2023/05/22 07:11:34;;;;;;;;;;;;;;;27.61;33.94;99135.52;67939;1275;1016352;-68
2023/05/22 07:14:37;;;;;;;;;;;;;;;27.29;32.88;99136.09;67916;1275;1015856;-72
2023/05/22 07:17:41;;;;;;;;;;;;;;;27.11;33.04;99136.71;67981;1275;1016242;-63
2023/05/22 07:20:44;;;;;;;;;;;;;;;27.13;33.55;99135.52;67923;1275;1016425;-65
2023/05/22 07:23:47;;;;;;;;;;;;;;;27.31;33.41;99137.39;67950;1275;1016406;-72
2023/05/22 07:26:50;;;;;;;;;;;;;;;27.96;32.53;99130.91;67927;1275;1016042;-67
2023/05/22 07:29:52;;;;;;;;;;;;;;;27.91;32.09;99128.58;67915;1275;1016285;-67
2023/05/22 07:32:55;;;;;;;;;;;;;;;27.66;31.92;99125.50;67936;1275;1016444;-66
2023/05/22 07:36:02;;;;;;;;;;;;;;;27.68;32.44;99124.97;67944;1275;1016500;-67
2023/05/22 07:39:05;;;;;;;;;;;;;;;27.65;32.47;99124.61;67937;1275;1015930;-69
2023/05/22 07:42:08;;;;;;;;;;;;;;;27.75;33.11;99125.96;67926;1275;1016106;-66
2023/05/22 07:45:10;;;;;;;;;;;;;;;28.15;33.40;99121.52;67935;1275;1016465;-71
2023/05/22 07:48:13;;;;;;;;;;;;;;;28.40;32.31;99127.63;67925;1275;1016481;-64
2023/05/22 07:51:16;;;;;;;;;;;;;;;28.56;31.88;99125.13;67903;1275;1016454;-63
2023/05/22 07:54:19;;;;;;;;;;;;;;;28.61;31.50;99127.16;67876;1275;1016475;-64
2023/05/22 07:57:21;;;;;;;;;;;;;;;28.61;31.23;99123.60;67911;1275;1016282;-63
2023/05/22 08:00:26;;;;;;;;;;;;;;;28.58;31.38;99125.94;67916;1275;1015860;-65
2023/05/22 08:03:29;;;;;;;;;;;;;;;28.69;30.73;99125.71;67957;1275;1016475;-64
2023/05/22 08:06:34;;;;;;;;;;;;;;;28.74;29.84;99128.88;67949;1275;1016952;-71
2023/05/22 08:09:37;;;;;;;;;;;;;;;28.60;29.66;99121.91;67958;1275;1017353;-64
2023/05/22 08:12:40;;;;;;;;;;;;;;;28.48;29.92;99118.73;67904;1275;1016152;-66
2023/05/22 08:15:43;;;;;;;;;;;;;;;28.47;29.17;99119.40;67922;1275;1016464;-64
2023/05/22 08:18:47;;;;;;;;;;;;;;;28.14;28.35;99114.09;67891;1275;1016450;-63
2023/05/22 08:21:51;;;;;;;;;;;;;;;28.21;29.76;99118.30;67921;1275;1016431;-64
2023/05/22 08:24:54;;;;;;;;;;;;;;;28.22;28.80;99116.23;67935;1275;1016280;-62
2023/05/22 08:27:57;;;;;;;;;;;;;;;28.33;28.66;99117.73;67921;1275;1018079;-64
2023/05/22 08:31:00;;;;;;;;;;;;;;;28.45;29.30;99119.44;67935;1275;1016695;-68
2023/05/22 08:34:03;;;;;;;;;;;;;;;28.61;29.51;99113.98;67934;1275;1016353;-69
2023/05/22 08:37:08;;;;;;;;;;;;;;;28.73;29.79;99113.06;67917;1275;1016356;-63
2023/05/22 08:40:11;;;;;;;;;;;;;;;28.80;28.78;99117.52;67948;1275;1016468;-64
2023/05/22 08:43:14;;;;;;;;;;;;;;;28.82;29.33;99121.84;67905;1275;1016234;-64
2023/05/22 08:46:18;;;;;;;;;;;;;;;29.06;28.96;99114.59;67898;1275;1016252;-66
2023/05/22 08:49:21;;;;;;;;;;;;;;;29.13;27.90;99113.57;67931;1275;1016445;-64
2023/05/22 08:52:24;;;;;;;;;;;;;;;28.88;28.15;99110.34;67905;1275;1016389;-63
2023/05/22 08:55:28;;;;;;;;;;;;;;;28.85;28.63;99105.27;67950;1275;1016135;-62
2023/05/22 08:58:38;;;;;;;;;;;;;;;28.71;28.69;99106.24;67950;1275;1016482;-70
2023/05/22 09:01:41;;;;;;;;;;;;;;;28.82;28.92;99102.95;67931;1275;1016243;-66
2023/05/22 09:04:45;;;;;;;;;;;;;;;29.03;28.99;99104.33;67956;1275;1016388;-63
2023/05/22 09:07:48;;;;;;;;;;;;;;;29.11;27.91;99099.73;67906;1275;1016349;-64
2023/05/22 09:10:53;;;;;;;;;;;;;;;29.05;28.66;99101.85;67969;1275;1015943;-68
2023/05/22 09:13:56;;;;;;;;;;;;;;;29.18;28.51;99101.23;67885;1275;1016348;-66
2023/05/22 09:16:59;;;;;;;;;;;;;;;29.26;27.95;99097.88;67929;1275;1019279;-70
2023/05/22 09:20:03;;;;;;;;;;;;;;;29.30;27.73;99098.22;67954;1275;1016279;-66
2023/05/22 09:23:05;;;;;;;;;;;;;;;29.22;27.58;99095.13;67962;1275;1016350;-69
2023/05/22 09:26:09;;;;;;;;;;;;;;;29.16;27.65;99098.40;67848;1275;1016470;-62
2023/05/22 09:29:12;;;;;;;;;;;;;;;29.33;27.56;99097.47;67848;1275;1016352;-70
2023/05/22 09:32:15;;;;;;;;;;;;;;;29.36;27.54;99100.09;67952;1275;1016298;-70
2023/05/22 09:35:17;;;;;;;;;;;;;;;29.30;27.35;99098.97;67968;1275;1018623;-65
2023/05/22 09:38:20;;;;;;;;;;;;;;;29.37;27.26;99102.65;67895;1275;1016349;-71
2023/05/22 09:41:23;;;;;;;;;;;;;;;29.43;26.97;99092.77;67870;1275;1016148;-68
2023/05/22 09:44:26;;;;;;;;;;;;;;;29.43;27.85;99084.33;67776;1275;1016404;-67
2023/05/22 09:47:29;;;;;;;;;;;;;;;29.81;27.69;99086.91;67864;1275;1016470;-69
2023/05/22 09:50:32;;;;;;;;;;;;;;;30.08;27.73;99086.55;67933;1275;1016003;-70
2023/05/22 09:53:35;;;;;;;;;;;;;;;30.21;27.29;99092.58;67938;1275;1016465;-70
2023/05/22 09:56:38;;;;;;;;;;;;;;;30.28;27.04;99085.77;67976;1275;1018062;-66
2023/05/22 09:59:41;;;;;;;;;;;;;;;30.25;27.31;99081.55;67897;1275;1016422;-70
2023/05/22 10:02:44;;;;;;;;;;;;;;;30.34;27.20;99081.43;67958;1275;1016399;-64
2023/05/22 10:05:47;;;;;;;;;;;;;;;30.58;27.33;99075.80;67933;1275;1016417;-70
2023/05/22 10:08:49;;;;;;;;;;;;;;;30.56;26.90;99075.46;67974;1275;1016532;-70
2023/05/22 10:11:52;;;;;;;;;;;;;;;30.61;26.90;99066.53;67955;1275;1016301;-67
2023/05/22 10:14:54;;;;;;;;;;;;;;;30.69;26.45;99066.46;67912;1275;1016757;-66
2023/05/22 10:17:57;;;;;;;;;;;;;;;30.72;26.48;99062.62;67888;1275;1016475;-69
2023/05/22 10:21:04;;;;;;;;;;;;;;;30.59;25.30;99061.73;67948;1275;1016472;-69
2023/05/22 10:24:07;;;;;;;;;;;;;;;30.26;26.12;99060.33;67923;1275;1016366;-70
2023/05/22 10:27:10;;;;;;;;;;;;;;;30.31;26.53;99057.80;67981;1275;1015980;-70
2023/05/22 10:30:13;;;;;;;;;;;;;;;30.42;26.25;99056.30;67964;1275;1016494;-71
2023/05/22 10:33:16;;;;;;;;;;;;;;;30.66;26.10;99053.45;67957;1275;1016417;-65
2023/05/22 10:36:20;;;;;;;;;;;;;;;30.59;25.96;99046.59;67923;1275;1016170;-66
2023/05/22 10:39:22;;;;;;;;;;;;;;;30.70;26.13;99050.23;67921;1275;1016781;-64
2023/05/22 10:42:25;;;;;;;;;;;;;;;30.89;26.37;99049.21;67931;1275;1016472;-63
2023/05/22 10:45:30;;;;;;;;;;;;;;;30.91;25.71;99048.36;67946;1275;1016424;-69
2023/05/22 10:48:33;;;;;;;;;;;;;;;31.07;26.01;99046.61;67932;1275;1017027;-71
2023/05/22 10:51:36;;;;;;;;;;;;;;;31.26;25.62;99036.40;67980;1275;1016179;-69
2023/05/22 10:54:40;;;;;;;;;;;;;;;31.13;25.70;99035.28;67938;1275;1016510;-71
2023/05/22 10:57:42;;;;;;;;;;;;;;;31.16;26.02;99037.33;67947;1275;1016389;-63
2023/05/22 11:00:45;;;;;;;;;;;;;;;31.56;26.11;99032.23;67923;1275;1016889;-71
2023/05/22 11:03:48;;;;;;;;;;;;;;;31.96;26.10;99026.81;67910;1275;1020267;-68
2023/05/22 11:06:51;;;;;;;;;;;;;;;32.30;26.19;99020.00;67947;1275;1016355;-70
2023/05/22 11:09:54;;;;;;;;;;;;;;;32.55;25.82;99022.55;67867;1275;1016916;-65
2023/05/22 11:12:57;;;;;;;;;;;;;;;32.28;24.27;99012.80;67968;1275;1016413;-71
2023/05/22 11:15:59;;;;;;;;;;;;;;;32.05;24.75;99013.55;67950;1275;1016469;-66
2023/05/22 11:19:02;;;;;;;;;;;;;;;31.40;24.50;99016.92;67953;1275;1016531;-71
2023/05/22 11:22:05;;;;;;;;;;;;;;;31.21;25.94;99018.41;67927;1275;1015767;-64
2023/05/22 11:25:09;;;;;;;;;;;;;;;31.38;25.35;99014.16;67937;1275;1016355;-69
2023/05/22 11:28:13;;;;;;;;;;;;;;;31.29;25.18;99008.09;67977;1275;1016303;-68
2023/05/22 11:31:16;;;;;;;;;;;;;;;30.94;25.76;99012.19;67952;1275;1016483;-63
2023/05/22 11:34:19;;;;;;;;;;;;;;;30.49;25.43;99015.14;67955;1275;1016268;-65
2023/05/22 11:37:22;;;;;;;;;;;;;;;30.19;26.02;99018.30;67972;1275;1016656;-63
2023/05/22 11:40:29;;;;;;;;;;;;;;;30.06;26.04;99014.63;67951;1275;1016464;-63
2023/05/22 11:43:33;;;;;;;;;;;;;;;29.97;26.70;99020.29;67923;1275;1016330;-64
2023/05/22 11:46:36;;;;;;;;;;;;;;;29.94;26.80;99013.60;67960;1275;1017592;-71
2023/05/22 11:49:43;;;;;;;;;;;;;;;30.00;26.53;99011.38;67922;1275;1016652;-71
2023/05/22 11:52:45;;;;;;;;;;;;;;;29.87;26.83;99007.02;67950;1275;1016778;-72
2023/05/22 11:55:49;;;;;;;;;;;;;;;29.85;26.69;99003.52;67947;1275;1016220;-63
2023/05/22 11:58:51;;;;;;;;;;;;;;;29.92;26.99;99002.59;67923;1275;1018864;-63
2023/05/22 12:01:54;;;;;;;;;;;;;;;30.18;26.98;98998.16;67901;1275;1017316;-69
2023/05/22 12:04:57;;;;;;;;;;;;;;;30.43;26.99;98991.83;67904;1275;1015783;-70
2023/05/22 12:08:00;;;;;;;;;;;;;;;30.38;26.55;98996.42;67963;1275;1016247;-69
2023/05/22 12:11:03;;;;;;;;;;;;;;;30.45;26.68;98991.41;68009;1275;1019405;-68
2023/05/22 12:14:06;;;;;;;;;;;;;;;30.46;26.63;98991.02;67948;1275;1018152;-71
2023/05/22 12:17:10;;;;;;;;;;;;;;;30.38;26.89;98991.11;67796;1275;1018058;-71
2023/05/22 12:20:13;;;;;;;;;;;;;;;30.33;26.96;98994.57;67959;1275;1016452;-70
2023/05/22 12:23:16;;;;;;;;;;;;;;;30.33;26.53;98995.71;67886;1275;1016183;-71
2023/05/22 12:26:22;;;;;;;;;;;;;;;30.27;26.32;98997.95;67914;1275;1016309;-72
2023/05/22 12:29:26;;;;;;;;;;;;;;;30.01;26.34;98989.77;67966;1275;1016521;-71
2023/05/22 12:32:29;;;;;;;;;;;;;;;29.93;26.82;98986.95;68015;1275;1016280;-65
2023/05/22 12:35:32;;;;;;;;;;;;;;;29.60;26.47;98981.54;67968;1275;1016335;-66
2023/05/22 12:38:35;;;;;;;;;;;;;;;29.46;27.06;98984.23;67953;1275;1016340;-72
2023/05/22 12:41:38;;;;;;;;;;;;;;;29.47;27.22;98989.18;67952;1275;1016344;-73
2023/05/22 12:44:41;;;;;;;;;;;;;;;29.41;27.25;98986.41;67978;1275;1016490;-62
2023/05/22 12:47:46;;;;;;;;;;;;;;;29.52;27.96;98982.30;68012;1275;1016510;-73
2023/05/22 12:50:49;;;;;;;;;;;;;;;29.45;27.44;98974.14;67954;1275;1016178;-67
2023/05/22 12:53:52;;;;;;;;;;;;;;;29.31;27.52;98977.05;67984;1275;1016484;-71
2023/05/22 12:56:54;;;;;;;;;;;;;;;29.52;27.38;98975.33;68006;1275;1016855;-64
2023/05/22 12:59:57;;;;;;;;;;;;;;;29.56;27.36;98971.27;68035;1275;1016435;-73
2023/05/22 13:03:01;;;;;;;;;;;;;;;29.79;27.64;98967.61;67976;1275;1016160;-67
2023/05/22 13:06:05;;;;;;;;;;;;;;;29.85;27.57;98968.52;67900;1275;1016374;-63
2023/05/22 13:09:08;;;;;;;;;;;;;;;29.97;27.00;98965.63;68040;1275;1016511;-67
2023/05/22 13:12:11;;;;;;;;;;;;;;;30.05;27.62;98961.63;67970;1275;1016171;-66
2023/05/22 13:15:15;;;;;;;;;;;;;;;30.05;27.11;98958.93;68001;1275;1016523;-71
2023/05/22 13:18:17;;;;;;;;;;;;;;;29.93;27.48;98955.34;67977;1275;1017970;-64
2023/05/22 13:21:19;;;;;;;;;;;;;;;30.11;27.45;98952.73;67929;1275;1016500;-67
2023/05/22 13:24:22;;;;;;;;;;;;;;;30.35;27.17;98954.58;67972;1275;1016374;-71
2023/05/22 13:27:26;;;;;;;;;;;;;;;30.16;26.39;98951.30;67953;1275;1016271;-72
2023/05/22 13:30:30;;;;;;;;;;;;;;;30.02;27.40;98951.42;67969;1275;1016393;-69
2023/05/22 13:33:34;;;;;;;;;;;;;;;30.26;27.52;98953.64;67970;1275;1016136;-69
2023/05/22 13:36:37;;;;;;;;;;;;;;;30.51;27.06;98953.37;67975;1275;1016250;-72
2023/05/22 13:39:41;;;;;;;;;;;;;;;30.75;26.45;98945.45;67997;1275;1016284;-63
2023/05/22 13:42:44;;;;;;;;;;;;;;;30.97;26.92;98944.59;67918;1275;1016632;-64
2023/05/22 13:45:48;;;;;;;;;;;;;;;30.77;26.30;98944.35;67979;1275;1016051;-65
2023/05/22 13:48:51;;;;;;;;;;;;;;;30.55;25.87;98939.75;67890;1275;1016178;-71
2023/05/22 13:51:53;;;;;;;;;;;;;;;30.65;26.61;98937.63;67984;1275;1016380;-72
2023/05/22 13:54:57;;;;;;;;;;;;;;;30.82;26.02;98927.55;68017;1275;1016231;-71
2023/05/22 13:58:00;;;;;;;;;;;;;;;30.87;26.37;98924.98;67918;1275;1016345;-72
2023/05/22 14:01:03;;;;;;;;;;;;;;;30.72;25.56;98927.55;67957;1275;1016465;-64
2023/05/22 14:04:07;;;;;;;;;;;;;;;30.48;26.38;98929.65;67846;1275;1016405;-70
2023/05/22 14:07:12;;;;;;;;;;;;;;;30.75;26.75;98924.88;67841;1275;1016548;-66
2023/05/22 14:10:15;;;;;;;;;;;;;;;31.13;26.61;98917.94;68025;1275;1016376;-69
2023/05/22 14:13:18;;;;;;;;;;;;;;;31.18;26.07;98917.52;68000;1275;1016338;-65
2023/05/22 14:16:21;;;;;;;;;;;;;;;31.13;25.72;98918.34;68019;1275;1016384;-67
2023/05/22 14:19:25;;;;;;;;;;;;;;;30.99;25.98;98917.98;67875;1275;1016794;-63
2023/05/22 14:22:28;;;;;;;;;;;;;;;31.04;25.66;98920.83;67965;1274;1016375;-68
2023/05/22 14:25:30;;;;;;;;;;;;;;;30.84;25.40;98915.64;67951;1275;1015873;-69
2023/05/22 14:28:32;;;;;;;;;;;;;;;30.35;25.61;98911.21;67985;1275;1016695;-64
2023/05/22 14:31:35;;;;;;;;;;;;;;;30.33;26.14;98911.19;67986;1275;1016426;-68
2023/05/22 14:34:39;;;;;;;;;;;;;;;30.39;26.21;98911.93;68014;1275;1016309;-67
2023/05/22 14:37:42;;;;;;;;;;;;;;;30.66;26.09;98906.92;67985;1275;1016162;-70
2023/05/22 14:40:45;;;;;;;;;;;;;;;30.56;25.67;98905.98;68023;1275;1016262;-72
2023/05/22 14:43:48;;;;;;;;;;;;;;;30.40;26.36;98911.20;67983;1275;1016526;-69
2023/05/22 14:46:52;;;;;;;;;;;;;;;30.56;26.32;98907.91;68003;1275;1016328;-65
2023/05/22 14:49:54;;;;;;;;;;;;;;;30.54;26.47;98908.34;67995;1275;1016418;-72
2023/05/22 14:52:57;;;;;;;;;;;;;;;30.42;26.41;98905.38;68005;1275;1019194;-72
2023/05/22 14:56:00;;;;;;;;;;;;;;;30.71;26.24;98898.64;68018;1275;1015944;-71
2023/05/22 14:59:03;;;;;;;;;;;;;;;30.98;26.51;98893.72;67882;1275;1016507;-67
2023/05/22 15:02:06;;;;;;;;;;;;;;;31.27;25.58;98898.52;68212;1275;1016463;-70
2023/05/22 15:05:08;;;;;;;;;;;;;;;31.60;24.94;98895.89;67863;1275;1016199;-64
2023/05/22 15:08:11;;;;;;;;;;;;;;;32.66;25.29;98894.44;67970;1275;1016579;-63
2023/05/22 15:11:14;;;;;;;;;;;;;;;34.18;24.26;98892.52;68024;1275;1016466;-67
2023/05/22 15:14:17;;;;;;;;;;;;;;;35.61;23.22;98884.35;67981;1275;1016119;-65
2023/05/22 15:17:20;;;;;;;;;;;;;;;36.18;21.56;98882.10;67941;1275;1016012;-66
2023/05/22 15:20:23;;;;;;;;;;;;;;;36.83;21.90;98885.52;67932;1275;1016413;-63
2023/05/22 15:23:26;;;;;;;;;;;;;;;37.77;21.32;98881.27;67976;1275;1016436;-70
2023/05/22 15:26:28;;;;;;;;;;;;;;;38.11;19.94;98875.84;67985;1275;1016416;-69
2023/05/22 15:29:30;;;;;;;;;;;;;;;38.49;20.36;98874.79;68013;1275;1016423;-64
2023/05/22 15:32:33;;;;;;;;;;;;;;;38.95;19.85;98873.02;68024;1275;1016434;-63